createdAt,value
2022-11-10T00:02:31.649Z,1.02
2022-11-10T00:05:38.172Z,1.13
2022-11-10T00:08:43.116Z,1.30
2022-11-10T00:11:48.839Z,1.30
2022-11-10T00:15:23.729Z,1.17
2022-11-10T00:18:28.649Z,1.50
2022-11-10T00:21:33.698Z,1.55
2022-11-10T00:24:38.565Z,0.90
2022-11-10T00:27:43.494Z,1.47
2022-11-10T00:30:50.370Z,1.30
2022-11-10T00:33:54.858Z,1.02
2022-11-10T00:37:08.143Z,1.05
2022-11-10T00:40:13.456Z,1.07
2022-11-10T00:43:21.300Z,1.08
2022-11-10T00:46:31.597Z,1.02
2022-11-10T00:49:36.316Z,0.90
2022-11-10T00:52:41.426Z,0.80
2022-11-10T00:55:47.005Z,1.10
2022-11-10T00:58:52.928Z,0.90
2022-11-10T01:02:01.834Z,1.05
2022-11-10T01:05:06.660Z,0.82
2022-11-10T01:08:11.874Z,0.80
2022-11-10T01:11:17.980Z,1.23
2022-11-10T01:14:22.978Z,1.20
2022-11-10T01:17:31.352Z,1.20
2022-11-10T01:20:37.491Z,0.97
2022-11-10T01:23:42.507Z,1.30
2022-11-10T01:26:47.462Z,1.00
2022-11-10T01:29:52.482Z,0.90
2022-11-10T01:33:05.082Z,1.00
2022-11-10T01:36:11.163Z,1.10
2022-11-10T01:39:18.826Z,1.30
2022-11-10T01:42:28.524Z,1.50
2022-11-10T01:45:53.497Z,1.70
2022-11-10T01:49:02.880Z,1.27
2022-11-10T01:52:12.618Z,1.40
2022-11-10T01:55:17.898Z,1.20
2022-11-10T01:58:27.446Z,1.10
2022-11-10T02:01:32.833Z,1.07
2022-11-10T02:04:40.976Z,1.70
2022-11-10T02:07:46.449Z,1.23
2022-11-10T02:10:51.617Z,1.10
2022-11-10T02:14:00.497Z,1.17
2022-11-10T02:17:05.749Z,1.42
2022-11-10T02:20:15.094Z,1.63
2022-11-10T02:23:49.131Z,1.17
2022-11-10T02:26:58.621Z,1.20
2022-11-10T02:30:04.250Z,1.17
2022-11-10T02:33:09.142Z,1.40
2022-11-10T02:36:13.970Z,1.20
2022-11-10T02:39:20.649Z,0.90
2022-11-10T02:42:25.428Z,0.97
2022-11-10T02:45:30.387Z,1.20
2022-11-10T02:48:36.315Z,0.80
2022-11-10T02:51:42.799Z,1.00
2022-11-10T02:54:49.709Z,0.97
2022-11-10T02:57:54.522Z,1.20
2022-11-10T03:00:59.917Z,1.10
2022-11-10T03:04:04.813Z,1.13
2022-11-10T03:07:09.736Z,1.23
2022-11-10T03:10:16.135Z,1.40
2022-11-10T03:13:21.281Z,1.07
2022-11-10T03:16:26.722Z,0.80
2022-11-10T03:19:31.715Z,1.00
2022-11-10T03:22:37.385Z,0.80
2022-11-10T03:25:44.586Z,0.90
2022-11-10T03:28:49.656Z,1.20
2022-11-10T03:31:54.458Z,1.10
2022-11-10T03:35:00.163Z,1.10
2022-11-10T03:38:05.389Z,1.10
2022-11-10T03:41:20.164Z,1.17
2022-11-10T03:44:25.618Z,1.30
2022-11-10T03:47:30.635Z,0.93
2022-11-10T03:50:35.669Z,1.30
2022-11-10T03:53:40.947Z,1.10
2022-11-10T03:56:47.339Z,1.10
2022-11-10T03:59:52.127Z,1.20
2022-11-10T04:02:56.921Z,1.00
2022-11-10T04:06:18.231Z,1.10
2022-11-10T04:09:23.160Z,0.97
2022-11-10T04:12:46.383Z,1.33
2022-11-10T04:15:52.318Z,0.97
2022-11-10T04:18:57.152Z,1.20
2022-11-10T04:22:01.896Z,1.40
2022-11-10T04:25:06.711Z,1.43
2022-11-10T04:28:12.955Z,1.50
2022-11-10T04:31:18.874Z,1.33
2022-11-10T04:34:23.745Z,1.40
2022-11-10T04:37:28.073Z,0.90
2022-11-10T04:40:33.030Z,1.07
2022-11-10T04:43:39.941Z,1.03
2022-11-10T04:46:44.659Z,1.00
2022-11-10T04:49:49.577Z,1.47
2022-11-10T04:52:54.495Z,1.03
2022-11-10T04:55:59.312Z,1.20
2022-11-10T04:59:05.684Z,1.17
2022-11-10T05:02:10.518Z,1.00
2022-11-10T05:05:15.836Z,1.03
2022-11-10T05:08:20.851Z,1.60
2022-11-10T05:11:25.725Z,1.20
2022-11-10T05:14:33.451Z,1.00
2022-11-10T05:17:38.719Z,1.00
2022-11-10T05:20:43.667Z,0.83
2022-11-10T05:23:48.717Z,1.10
2022-11-10T05:26:53.693Z,1.30
2022-11-10T05:30:03.474Z,1.27
2022-11-10T05:33:09.018Z,1.27
2022-11-10T05:36:13.862Z,0.97
2022-11-10T05:39:19.405Z,1.07
2022-11-10T05:42:24.200Z,1.33
2022-11-10T05:45:31.426Z,1.33
2022-11-10T05:48:36.446Z,1.30
2022-11-10T05:51:41.478Z,1.00
2022-11-10T05:54:46.405Z,1.30
2022-11-10T05:57:52.834Z,1.10
2022-11-10T06:01:01.758Z,1.10
2022-11-10T06:04:06.848Z,1.27
2022-11-10T06:07:12.570Z,1.20
2022-11-10T06:10:17.606Z,1.10
2022-11-10T06:13:22.913Z,1.10
2022-11-10T06:16:30.271Z,1.40
2022-11-10T06:19:35.139Z,1.83
2022-11-10T06:22:39.702Z,1.50
2022-11-10T06:25:44.955Z,1.10
2022-11-10T06:28:50.023Z,1.30
2022-11-10T06:31:56.661Z,1.40
2022-11-10T06:35:02.038Z,1.80
2022-11-10T06:38:07.945Z,1.20
2022-11-10T06:41:12.643Z,1.23
2022-11-10T06:44:19.485Z,1.23
2022-11-10T06:47:25.811Z,1.27
2022-11-10T06:50:31.120Z,1.10
2022-11-10T06:53:36.062Z,1.40
2022-11-10T06:56:40.836Z,1.00
2022-11-10T06:59:45.963Z,1.37
2022-11-10T07:03:03.631Z,1.60
2022-11-10T07:06:08.715Z,1.70
2022-11-10T07:09:14.281Z,1.20
2022-11-10T07:12:19.908Z,2.00
2022-11-10T07:15:25.231Z,2.40
2022-11-10T07:18:31.729Z,1.80
2022-11-10T07:21:36.582Z,2.00
2022-11-10T07:24:42.027Z,2.83
2022-11-10T07:27:47.438Z,2.60
2022-11-10T07:30:53.410Z,2.17
2022-11-10T07:34:09.174Z,1.60
2022-11-10T07:37:14.102Z,2.20
2022-11-10T07:40:19.076Z,1.80
2022-11-10T07:43:25.570Z,1.80
2022-11-10T07:46:31.054Z,2.00
2022-11-10T07:49:39.889Z,1.80
2022-11-10T07:52:44.521Z,1.63
2022-11-10T07:55:49.930Z,1.80
2022-11-10T07:58:55.034Z,1.80
2022-11-10T08:01:59.865Z,2.00
2022-11-10T08:05:06.563Z,1.97
2022-11-10T08:08:11.901Z,1.93
2022-11-10T08:11:17.402Z,1.53
2022-11-10T08:14:25.268Z,2.03
2022-11-10T08:17:30.050Z,1.87
2022-11-10T08:20:36.731Z,1.77
2022-11-10T08:23:41.492Z,1.40
2022-11-10T08:26:46.180Z,1.40
2022-11-10T08:29:51.001Z,1.87
2022-11-10T08:32:57.961Z,1.70
2022-11-10T08:36:04.360Z,2.33
2022-11-10T08:39:09.855Z,1.90
2022-11-10T08:42:14.541Z,1.67
2022-11-10T08:45:19.274Z,1.93
2022-11-10T08:48:24.206Z,1.93
2022-11-10T08:51:34.876Z,1.57
2022-11-10T08:54:42.460Z,1.43
2022-11-10T08:57:47.325Z,1.40
2022-11-10T09:00:55.274Z,1.27
2022-11-10T09:04:00.108Z,1.20
2022-11-10T09:07:07.202Z,0.80
2022-11-10T09:10:12.495Z,0.80
2022-11-10T09:13:18.285Z,0.93
2022-11-10T09:16:23.144Z,0.70
2022-11-10T09:19:28.293Z,1.10
2022-11-10T09:22:34.571Z,0.63
2022-11-10T09:25:39.711Z,1.13
2022-11-10T09:28:44.778Z,0.70
2022-11-10T09:31:49.749Z,0.80
2022-11-10T09:34:54.684Z,0.45
2022-11-10T09:38:01.122Z,0.55
2022-11-10T09:41:09.031Z,0.40
2022-11-10T09:44:19.781Z,0.38
2022-11-10T09:47:56.690Z,0.40
2022-11-10T09:50:56.170Z,0.52
2022-11-10T09:54:06.952Z,0.60
2022-11-10T09:57:17.424Z,0.35
2022-11-10T10:00:22.401Z,0.57
2022-11-10T10:03:32.176Z,0.47
2022-11-10T10:07:09.616Z,0.57
2022-11-10T10:10:17.777Z,0.70
2022-11-10T10:13:45.546Z,0.32
2022-11-10T10:17:00.291Z,0.50
2022-11-10T10:20:13.054Z,0.90
2022-11-10T10:23:40.733Z,0.52
2022-11-10T10:26:55.800Z,0.52
2022-11-10T10:30:00.829Z,0.65
2022-11-10T10:33:16.474Z,0.60
2022-11-10T10:36:24.953Z,0.55
2022-11-10T10:39:33.856Z,0.70
2022-11-10T10:42:40.377Z,0.70
2022-11-10T10:45:45.124Z,0.60
2022-11-10T10:48:53.826Z,0.50
2022-11-10T10:52:12.526Z,0.70
2022-11-10T10:55:17.413Z,0.45
2022-11-10T10:58:27.483Z,0.68
2022-11-10T11:01:33.455Z,0.68
2022-11-10T11:04:39.930Z,0.47
2022-11-10T11:07:55.795Z,0.70
2022-11-10T11:11:09.795Z,0.73
2022-11-10T11:14:23.025Z,0.63
2022-11-10T11:17:28.362Z,0.60
2022-11-10T11:20:40.828Z,0.70
2022-11-10T11:24:00.635Z,0.60
2022-11-10T11:27:13.962Z,0.65
2022-11-10T11:30:21.675Z,0.50
2022-11-10T11:33:45.299Z,0.90
2022-11-10T11:37:05.327Z,0.75
2022-11-10T11:40:28.641Z,0.40
2022-11-10T11:43:57.433Z,0.57
2022-11-10T11:47:14.741Z,0.52
2022-11-10T11:50:30.455Z,0.40
2022-11-10T11:53:50.535Z,0.63
2022-11-10T11:57:00.238Z,0.52
2022-11-10T12:00:10.833Z,0.63
2022-11-10T12:03:57.927Z,0.70
2022-11-10T12:07:15.286Z,0.40
2022-11-10T12:10:31.198Z,0.60
2022-11-10T12:13:54.038Z,1.00
2022-11-10T12:17:08.868Z,0.60
2022-11-10T12:20:37.070Z,0.43
2022-11-10T12:23:52.121Z,0.60
2022-11-10T12:27:01.571Z,0.80
2022-11-10T12:30:11.956Z,0.45
2022-11-10T12:33:25.353Z,0.45
2022-11-10T12:36:34.631Z,0.40
2022-11-10T12:39:48.325Z,0.55
2022-11-10T12:43:00.626Z,0.40
2022-11-10T12:46:08.560Z,0.52
2022-11-10T12:49:21.295Z,0.52
2022-11-10T12:52:34.838Z,0.57
2022-11-10T12:55:43.735Z,0.65
2022-11-10T12:58:48.249Z,0.40
2022-11-10T13:01:59.125Z,0.63
2022-11-10T13:05:25.488Z,0.57
2022-11-10T13:08:50.535Z,0.80
2022-11-10T13:12:17.397Z,0.50
2022-11-10T13:15:58.204Z,0.60
2022-11-10T13:19:03.972Z,0.50
2022-11-10T13:22:12.957Z,0.43
2022-11-10T13:26:04.142Z,0.70
2022-11-10T13:29:29.710Z,0.65
2022-11-10T13:32:37.537Z,0.47
2022-11-10T13:35:55.956Z,1.08
2022-11-10T13:39:24.404Z,0.52
2022-11-10T13:42:29.736Z,0.52
2022-11-10T13:45:47.590Z,0.45
2022-11-10T13:49:27.126Z,0.90
2022-11-10T13:52:51.149Z,0.60
2022-11-10T13:56:10.259Z,0.50
2022-11-10T13:59:22.106Z,0.50
2022-11-10T14:02:48.595Z,0.30
2022-11-10T14:06:11.419Z,0.57
2022-11-10T14:09:29.355Z,0.30
2022-11-10T14:12:43.300Z,0.50
2022-11-10T14:15:50.264Z,0.55
2022-11-10T14:19:04.171Z,0.45
2022-11-10T14:22:22.577Z,0.43
2022-11-10T14:25:35.259Z,0.50
2022-11-10T14:28:40.433Z,0.55
2022-11-10T14:31:47.201Z,0.70
2022-11-10T14:34:56.618Z,0.57
2022-11-10T14:38:02.157Z,0.28
2022-11-10T14:41:08.861Z,0.68
2022-11-10T14:44:22.099Z,0.60
2022-11-10T14:47:31.415Z,0.50
2022-11-10T14:50:38.414Z,0.95
2022-11-10T14:53:50.187Z,0.50
2022-11-10T14:56:55.562Z,0.47
2022-11-10T15:00:00.254Z,0.50
2022-11-10T15:03:06.628Z,0.55
2022-11-10T15:06:14.635Z,0.50
2022-11-10T15:09:25.612Z,0.30
2022-11-10T15:12:30.781Z,0.50
2022-11-10T15:15:35.955Z,0.52
2022-11-10T15:18:41.074Z,0.60
2022-11-10T15:21:48.840Z,0.20
2022-11-10T15:24:54.216Z,0.40
2022-11-10T15:28:02.526Z,0.40
2022-11-10T15:31:10.734Z,0.68
2022-11-10T15:34:31.840Z,0.40
2022-11-10T15:37:38.378Z,0.52
2022-11-10T15:40:47.677Z,0.20
2022-11-10T15:43:52.468Z,0.40
2022-11-10T15:46:58.893Z,0.50
2022-11-10T15:50:06.083Z,0.60
2022-11-10T15:53:18.233Z,0.40
2022-11-10T15:56:24.273Z,0.60
2022-11-10T15:59:29.021Z,0.80
2022-11-10T16:02:33.626Z,0.70
2022-11-10T16:05:40.590Z,0.90
2022-11-10T16:08:48.276Z,0.60
2022-11-10T16:11:53.229Z,0.70
2022-11-10T16:15:00.002Z,0.77
2022-11-10T16:18:04.998Z,0.73
2022-11-10T16:21:13.496Z,0.77
2022-11-10T16:24:19.942Z,0.90
2022-11-10T16:27:24.790Z,0.70
2022-11-10T16:30:30.206Z,0.80
2022-11-10T16:33:34.874Z,0.60
2022-11-10T16:36:42.063Z,0.90
2022-11-10T16:39:48.184Z,0.83
2022-11-10T16:42:53.232Z,0.90
2022-11-10T16:46:00.441Z,0.90
2022-11-10T16:49:07.568Z,0.77
2022-11-10T16:52:18.021Z,1.13
2022-11-10T16:55:24.382Z,0.73
2022-11-10T16:58:29.258Z,0.80
2022-11-10T17:01:37.694Z,1.07
2022-11-10T17:04:42.389Z,0.87
2022-11-10T17:07:47.107Z,1.00
2022-11-10T17:10:53.717Z,1.03
2022-11-10T17:13:58.657Z,1.50
2022-11-10T17:17:04.552Z,1.40
2022-11-10T17:20:11.448Z,1.17
2022-11-10T17:23:18.473Z,1.10
2022-11-10T17:26:24.874Z,1.00
2022-11-10T17:29:30.265Z,0.70
2022-11-10T17:33:03.775Z,1.00
2022-11-10T17:36:05.362Z,1.00
2022-11-10T17:39:15.221Z,1.30
2022-11-10T17:42:21.646Z,1.43
2022-11-10T17:45:28.598Z,1.50
2022-11-10T17:48:33.405Z,0.87
2022-11-10T17:51:38.777Z,1.30
2022-11-10T17:54:43.714Z,1.10
2022-11-10T17:57:51.273Z,1.30
2022-11-10T18:00:57.416Z,1.53
2022-11-10T18:04:04.025Z,1.27
2022-11-10T18:07:08.919Z,1.10
2022-11-10T18:10:16.297Z,1.10
2022-11-10T18:13:22.795Z,1.13
2022-11-10T18:16:27.932Z,0.90
2022-11-10T18:19:32.703Z,1.20
2022-11-10T18:22:37.589Z,1.00
2022-11-10T18:25:43.109Z,0.80
2022-11-10T18:28:50.672Z,1.07
2022-11-10T18:31:55.473Z,0.93
2022-11-10T18:35:00.322Z,1.00
2022-11-10T18:38:05.449Z,1.07
2022-11-10T18:41:27.610Z,1.13
2022-11-10T18:44:37.517Z,1.40
2022-11-10T18:47:42.198Z,1.50
2022-11-10T18:50:54.773Z,1.50
2022-11-10T18:53:59.936Z,1.83
2022-11-10T18:57:05.115Z,1.60
2022-11-10T19:00:14.816Z,1.80
2022-11-10T19:03:20.199Z,1.90
2022-11-10T19:06:25.703Z,2.03
2022-11-10T19:09:30.780Z,2.23
2022-11-10T19:12:35.741Z,2.20
2022-11-10T19:15:44.161Z,2.40
2022-11-10T19:18:51.021Z,1.63
2022-11-10T19:21:55.820Z,1.80
2022-11-10T19:25:07.987Z,2.17
2022-11-10T19:28:13.435Z,1.67
2022-11-10T19:31:23.299Z,3.00
2022-11-10T19:34:28.286Z,2.87
2022-11-10T19:37:36.546Z,3.57
2022-11-10T19:40:41.122Z,2.80
2022-11-10T19:43:47.642Z,3.27
2022-11-10T19:46:54.095Z,2.80
2022-11-10T19:49:58.888Z,2.40
2022-11-10T19:53:03.706Z,1.97
2022-11-10T19:56:12.815Z,2.10
2022-11-10T19:59:21.510Z,1.90
2022-11-10T20:02:28.003Z,2.00
2022-11-10T20:05:32.904Z,2.40
2022-11-10T20:08:37.850Z,1.97
2022-11-10T20:11:42.606Z,2.27
2022-11-10T20:14:47.987Z,2.30
2022-11-10T20:17:54.640Z,1.87
2022-11-10T20:21:04.585Z,1.80
2022-11-10T20:24:10.059Z,1.97
2022-11-10T20:27:14.750Z,1.80
2022-11-10T20:30:23.813Z,2.60
2022-11-10T20:33:33.452Z,3.10
2022-11-10T20:36:39.116Z,3.23
2022-11-10T20:39:43.986Z,3.00
2022-11-10T20:42:48.757Z,3.20
2022-11-10T20:45:54.588Z,2.90
2022-11-10T20:49:01.602Z,2.30
2022-11-10T20:52:06.505Z,2.70
2022-11-10T20:55:09.895Z,2.73
2022-11-10T20:58:12.656Z,2.73
2022-11-10T21:01:16.418Z,2.30
2022-11-10T21:04:20.589Z,3.20
2022-11-10T21:07:23.288Z,2.90
2022-11-10T21:10:25.989Z,2.13
2022-11-10T21:13:29.313Z,2.40
2022-11-10T21:16:31.953Z,2.40
2022-11-10T21:19:36.660Z,2.50
2022-11-10T21:22:39.361Z,2.87
2022-11-10T21:25:42.030Z,2.63
2022-11-10T21:28:44.666Z,2.90
2022-11-10T21:31:47.824Z,2.70
2022-11-10T21:34:51.966Z,3.33
2022-11-10T21:37:54.869Z,2.87
2022-11-10T21:40:58.736Z,2.97
2022-11-10T21:44:01.429Z,4.20
2022-11-10T21:47:04.111Z,3.90
2022-11-10T21:50:09.554Z,3.27
2022-11-10T21:53:12.213Z,3.77
2022-11-10T21:56:15.182Z,3.87
2022-11-10T21:59:19.191Z,3.33
2022-11-10T22:02:21.823Z,3.17
2022-11-10T22:05:25.913Z,3.40
2022-11-10T22:08:28.621Z,3.67
2022-11-10T22:11:48.745Z,3.30
2022-11-10T22:15:08.884Z,3.23
2022-11-10T22:18:31.471Z,3.43
2022-11-10T22:21:35.728Z,3.17
2022-11-10T22:24:38.338Z,3.00
2022-11-10T22:27:40.985Z,3.77
2022-11-10T22:30:43.648Z,2.97
2022-11-10T22:33:46.427Z,2.93
2022-11-10T22:36:50.471Z,3.13
2022-11-10T22:40:10.493Z,3.43
2022-11-10T22:43:30.645Z,3.50
2022-11-10T22:46:35.347Z,3.10
2022-11-10T22:49:38.032Z,3.20
2022-11-10T22:52:42.000Z,3.60
2022-11-10T22:55:44.618Z,3.30
2022-11-10T22:58:47.573Z,3.47
2022-11-10T23:01:50.279Z,3.33
2022-11-10T23:04:52.972Z,2.73
2022-11-10T23:07:57.334Z,2.33
2022-11-10T23:11:01.159Z,2.37
2022-11-10T23:14:04.116Z,2.77
2022-11-10T23:17:06.721Z,3.00
2022-11-10T23:20:10.896Z,2.90
2022-11-10T23:23:15.127Z,2.33
2022-11-10T23:26:20.292Z,2.83
2022-11-10T23:29:23.136Z,3.00
2022-11-10T23:32:25.797Z,3.00
2022-11-10T23:35:28.456Z,3.00
2022-11-10T23:38:33.253Z,3.20
2022-11-10T23:41:35.947Z,2.40
2022-11-10T23:44:38.675Z,2.83
2022-11-10T23:47:41.570Z,2.80
2022-11-10T23:50:44.276Z,3.20
2022-11-10T23:53:48.340Z,3.03
2022-11-10T23:56:50.976Z,3.23
2022-11-10T23:59:53.663Z,3.07
